sensor_id;sensor_type;location;lat;lon;timestamp;P1;durP1;ratioP1;P2;durP2;ratioP2
68942;SDS011;60852;52.190;4.422;2023-01-20T00:01:23;11.03;;;11.03;;
68942;SDS011;60852;52.190;4.422;2023-01-20T00:03:51;11.62;;;11.61;;
68942;SDS011;60852;52.190;4.422;2023-01-20T00:06:18;11.70;;;11.68;;
68942;SDS011;60852;52.190;4.422;2023-01-20T00:08:43;11.92;;;11.92;;
68942;SDS011;60852;52.190;4.422;2023-01-20T00:11:09;11.83;;;11.83;;
68942;SDS011;60852;52.190;4.422;2023-01-20T00:13:36;12.12;;;12.06;;
68942;SDS011;60852;52.190;4.422;2023-01-20T00:16:03;12.98;;;12.83;;
68942;SDS011;60852;52.190;4.422;2023-01-20T00:18:31;12.92;;;12.74;;
68942;SDS011;60852;52.190;4.422;2023-01-20T00:21:01;13.23;;;13.22;;
68942;SDS011;60852;52.190;4.422;2023-01-20T00:23:30;14.26;;;14.23;;
68942;SDS011;60852;52.190;4.422;2023-01-20T00:25:56;14.49;;;14.43;;
68942;SDS011;60852;52.190;4.422;2023-01-20T00:28:21;14.15;;;14.13;;
68942;SDS011;60852;52.190;4.422;2023-01-20T00:30:47;14.48;;;14.32;;
68942;SDS011;60852;52.190;4.422;2023-01-20T00:33:12;14.92;;;14.85;;
68942;SDS011;60852;52.190;4.422;2023-01-20T00:35:37;15.84;;;15.82;;
68942;SDS011;60852;52.190;4.422;2023-01-20T00:38:03;16.64;;;16.53;;
68942;SDS011;60852;52.190;4.422;2023-01-20T00:40:29;17.70;;;17.58;;
68942;SDS011;60852;52.190;4.422;2023-01-20T00:42:54;18.82;;;18.73;;
68942;SDS011;60852;52.190;4.422;2023-01-20T00:45:20;20.79;;;20.40;;
68942;SDS011;60852;52.190;4.422;2023-01-20T00:47:45;22.61;;;22.33;;
68942;SDS011;60852;52.190;4.422;2023-01-20T00:50:10;25.15;;;24.56;;
68942;SDS011;60852;52.190;4.422;2023-01-20T00:52:36;24.30;;;24.09;;
68942;SDS011;60852;52.190;4.422;2023-01-20T00:55:01;26.04;;;25.27;;
68942;SDS011;60852;52.190;4.422;2023-01-20T00:57:27;25.51;;;24.87;;
68942;SDS011;60852;52.190;4.422;2023-01-20T00:59:52;26.68;;;25.99;;
68942;SDS011;60852;52.190;4.422;2023-01-20T01:02:18;26.82;;;25.67;;
68942;SDS011;60852;52.190;4.422;2023-01-20T01:04:43;27.66;;;26.65;;
68942;SDS011;60852;52.190;4.422;2023-01-20T01:07:12;27.05;;;26.11;;
68942;SDS011;60852;52.190;4.422;2023-01-20T01:09:38;27.79;;;26.69;;
68942;SDS011;60852;52.190;4.422;2023-01-20T01:12:03;28.14;;;27.53;;
68942;SDS011;60852;52.190;4.422;2023-01-20T01:14:29;28.44;;;27.73;;
68942;SDS011;60852;52.190;4.422;2023-01-20T01:16:56;28.78;;;28.02;;
68942;SDS011;60852;52.190;4.422;2023-01-20T01:19:21;29.94;;;29.02;;
68942;SDS011;60852;52.190;4.422;2023-01-20T01:21:46;30.58;;;29.69;;
68942;SDS011;60852;52.190;4.422;2023-01-20T01:24:12;30.37;;;29.58;;
68942;SDS011;60852;52.190;4.422;2023-01-20T01:26:37;31.22;;;30.52;;
68942;SDS011;60852;52.190;4.422;2023-01-20T01:29:03;30.69;;;30.23;;
68942;SDS011;60852;52.190;4.422;2023-01-20T01:31:28;31.28;;;30.49;;
68942;SDS011;60852;52.190;4.422;2023-01-20T01:33:54;30.88;;;30.35;;
68942;SDS011;60852;52.190;4.422;2023-01-20T01:36:19;32.03;;;31.45;;
68942;SDS011;60852;52.190;4.422;2023-01-20T01:38:44;31.57;;;30.47;;
68942;SDS011;60852;52.190;4.422;2023-01-20T01:41:11;32.72;;;31.62;;
68942;SDS011;60852;52.190;4.422;2023-01-20T01:43:38;32.02;;;30.95;;
68942;SDS011;60852;52.190;4.422;2023-01-20T01:46:23;31.46;;;30.61;;
68942;SDS011;60852;52.190;4.422;2023-01-20T01:48:49;32.37;;;31.23;;
68942;SDS011;60852;52.190;4.422;2023-01-20T01:51:22;30.25;;;29.49;;
68942;SDS011;60852;52.190;4.422;2023-01-20T01:53:53;31.44;;;30.73;;
68942;SDS011;60852;52.190;4.422;2023-01-20T01:56:24;31.84;;;30.82;;
68942;SDS011;60852;52.190;4.422;2023-01-20T01:58:53;31.07;;;30.33;;
68942;SDS011;60852;52.190;4.422;2023-01-20T02:01:24;31.45;;;30.49;;
68942;SDS011;60852;52.190;4.422;2023-01-20T02:03:56;31.51;;;30.68;;
68942;SDS011;60852;52.190;4.422;2023-01-20T02:06:28;31.64;;;30.59;;
68942;SDS011;60852;52.190;4.422;2023-01-20T02:08:59;31.06;;;30.17;;
68942;SDS011;60852;52.190;4.422;2023-01-20T02:11:28;30.02;;;29.14;;
68942;SDS011;60852;52.190;4.422;2023-01-20T02:13:55;30.31;;;29.58;;
68942;SDS011;60852;52.190;4.422;2023-01-20T02:33:11;29.73;;;28.98;;
68942;SDS011;60852;52.190;4.422;2023-01-20T02:35:48;28.67;;;27.77;;
68942;SDS011;60852;52.190;4.422;2023-01-20T02:41:09;28.82;;;28.00;;
68942;SDS011;60852;52.190;4.422;2023-01-20T02:46:13;28.07;;;27.32;;
68942;SDS011;60852;52.190;4.422;2023-01-20T02:49:04;27.92;;;27.31;;
68942;SDS011;60852;52.190;4.422;2023-01-20T02:51:41;28.22;;;27.59;;
68942;SDS011;60852;52.190;4.422;2023-01-20T02:54:18;28.17;;;27.57;;
68942;SDS011;60852;52.190;4.422;2023-01-20T02:56:48;28.55;;;27.69;;
68942;SDS011;60852;52.190;4.422;2023-01-20T02:59:19;28.13;;;27.32;;
68942;SDS011;60852;52.190;4.422;2023-01-20T03:01:54;27.60;;;26.78;;
68942;SDS011;60852;52.190;4.422;2023-01-20T03:04:44;27.76;;;26.81;;
68942;SDS011;60852;52.190;4.422;2023-01-20T03:07:34;26.96;;;26.36;;
68942;SDS011;60852;52.190;4.422;2023-01-20T03:10:05;25.46;;;24.84;;
68942;SDS011;60852;52.190;4.422;2023-01-20T03:15:11;25.76;;;24.93;;
68942;SDS011;60852;52.190;4.422;2023-01-20T03:17:38;25.57;;;24.75;;
68942;SDS011;60852;52.190;4.422;2023-01-20T03:20:04;24.98;;;24.35;;
68942;SDS011;60852;52.190;4.422;2023-01-20T03:22:30;23.80;;;23.08;;
68942;SDS011;60852;52.190;4.422;2023-01-20T03:24:56;23.16;;;22.54;;
68942;SDS011;60852;52.190;4.422;2023-01-20T03:27:24;23.07;;;22.47;;
68942;SDS011;60852;52.190;4.422;2023-01-20T03:29:50;23.31;;;22.68;;
68942;SDS011;60852;52.190;4.422;2023-01-20T03:32:16;21.48;;;20.84;;
68942;SDS011;60852;52.190;4.422;2023-01-20T03:34:51;22.16;;;21.56;;
68942;SDS011;60852;52.190;4.422;2023-01-20T03:37:19;21.56;;;21.05;;
68942;SDS011;60852;52.190;4.422;2023-01-20T03:39:45;20.37;;;20.11;;
68942;SDS011;60852;52.190;4.422;2023-01-20T03:42:13;20.78;;;20.21;;
68942;SDS011;60852;52.190;4.422;2023-01-20T03:55:48;19.00;;;18.63;;
68942;SDS011;60852;52.190;4.422;2023-01-20T03:58:20;18.33;;;18.01;;
68942;SDS011;60852;52.190;4.422;2023-01-20T04:00:52;17.93;;;17.50;;
68942;SDS011;60852;52.190;4.422;2023-01-20T04:03:25;17.46;;;17.22;;
68942;SDS011;60852;52.190;4.422;2023-01-20T04:05:56;17.18;;;16.87;;
68942;SDS011;60852;52.190;4.422;2023-01-20T04:08:25;15.76;;;15.45;;
68942;SDS011;60852;52.190;4.422;2023-01-20T04:10:56;14.98;;;14.77;;
68942;SDS011;60852;52.190;4.422;2023-01-20T04:13:25;15.22;;;14.93;;
68942;SDS011;60852;52.190;4.422;2023-01-20T04:15:51;15.32;;;15.01;;
68942;SDS011;60852;52.190;4.422;2023-01-20T04:18:20;14.98;;;14.79;;
68942;SDS011;60852;52.190;4.422;2023-01-20T04:20:48;14.69;;;14.43;;
68942;SDS011;60852;52.190;4.422;2023-01-20T04:23:22;16.06;;;15.68;;
68942;SDS011;60852;52.190;4.422;2023-01-20T04:26:10;16.30;;;15.83;;
68942;SDS011;60852;52.190;4.422;2023-01-20T04:28:35;15.64;;;15.42;;
68942;SDS011;60852;52.190;4.422;2023-01-20T04:31:01;16.38;;;16.30;;
68942;SDS011;60852;52.190;4.422;2023-01-20T04:33:26;15.99;;;15.66;;
68942;SDS011;60852;52.190;4.422;2023-01-20T04:35:51;15.68;;;15.43;;
68942;SDS011;60852;52.190;4.422;2023-01-20T04:38:17;16.64;;;16.31;;
68942;SDS011;60852;52.190;4.422;2023-01-20T04:40:42;16.40;;;16.08;;
68942;SDS011;60852;52.190;4.422;2023-01-20T04:43:08;18.06;;;17.78;;
68942;SDS011;60852;52.190;4.422;2023-01-20T04:45:36;16.80;;;16.47;;
68942;SDS011;60852;52.190;4.422;2023-01-20T04:48:06;16.46;;;16.30;;
68942;SDS011;60852;52.190;4.422;2023-01-20T04:50:32;16.58;;;16.53;;
68942;SDS011;60852;52.190;4.422;2023-01-20T04:52:58;17.14;;;16.71;;
68942;SDS011;60852;52.190;4.422;2023-01-20T04:55:23;17.57;;;17.26;;
68942;SDS011;60852;52.190;4.422;2023-01-20T04:57:50;18.77;;;18.47;;
68942;SDS011;60852;52.190;4.422;2023-01-20T05:00:16;19.20;;;18.62;;
68942;SDS011;60852;52.190;4.422;2023-01-20T05:02:44;18.96;;;18.68;;
68942;SDS011;60852;52.190;4.422;2023-01-20T05:05:10;21.37;;;20.94;;
68942;SDS011;60852;52.190;4.422;2023-01-20T05:07:36;20.83;;;20.45;;
68942;SDS011;60852;52.190;4.422;2023-01-20T05:10:01;20.31;;;19.90;;
68942;SDS011;60852;52.190;4.422;2023-01-20T05:12:27;20.04;;;19.49;;
68942;SDS011;60852;52.190;4.422;2023-01-20T05:14:53;19.24;;;18.83;;
68942;SDS011;60852;52.190;4.422;2023-01-20T05:17:18;18.88;;;18.57;;
68942;SDS011;60852;52.190;4.422;2023-01-20T05:19:43;16.12;;;15.79;;
68942;SDS011;60852;52.190;4.422;2023-01-20T05:22:09;13.38;;;13.13;;
68942;SDS011;60852;52.190;4.422;2023-01-20T05:24:35;9.64;;;9.50;;
68942;SDS011;60852;52.190;4.422;2023-01-20T05:27:00;8.90;;;8.73;;
68942;SDS011;60852;52.190;4.422;2023-01-20T05:29:26;7.97;;;7.84;;
68942;SDS011;60852;52.190;4.422;2023-01-20T05:31:52;9.70;;;9.58;;
68942;SDS011;60852;52.190;4.422;2023-01-20T05:34:18;9.79;;;9.56;;
68942;SDS011;60852;52.190;4.422;2023-01-20T05:36:43;10.03;;;9.82;;
68942;SDS011;60852;52.190;4.422;2023-01-20T05:39:09;9.57;;;9.53;;
68942;SDS011;60852;52.190;4.422;2023-01-20T05:41:34;8.37;;;8.32;;
68942;SDS011;60852;52.190;4.422;2023-01-20T05:43:59;7.40;;;7.35;;
68942;SDS011;60852;52.190;4.422;2023-01-20T05:46:25;3.87;;;3.85;;
68942;SDS011;60852;52.190;4.422;2023-01-20T05:48:50;2.96;;;2.95;;
68942;SDS011;60852;52.190;4.422;2023-01-20T05:51:16;2.82;;;2.80;;
68942;SDS011;60852;52.190;4.422;2023-01-20T05:53:41;2.84;;;2.81;;
68942;SDS011;60852;52.190;4.422;2023-01-20T05:56:07;2.56;;;2.54;;
68942;SDS011;60852;52.190;4.422;2023-01-20T05:58:32;3.61;;;3.58;;
68942;SDS011;60852;52.190;4.422;2023-01-20T06:01:08;8.36;;;8.31;;
68942;SDS011;60852;52.190;4.422;2023-01-20T06:03:36;11.44;;;11.29;;
68942;SDS011;60852;52.190;4.422;2023-01-20T06:06:03;13.60;;;13.31;;
68942;SDS011;60852;52.190;4.422;2023-01-20T06:08:30;16.42;;;15.76;;
68942;SDS011;60852;52.190;4.422;2023-01-20T06:10:56;18.33;;;17.86;;
68942;SDS011;60852;52.190;4.422;2023-01-20T06:13:21;18.18;;;17.76;;
68942;SDS011;60852;52.190;4.422;2023-01-20T06:15:53;18.71;;;18.23;;
68942;SDS011;60852;52.190;4.422;2023-01-20T06:18:20;20.13;;;19.64;;
68942;SDS011;60852;52.190;4.422;2023-01-20T06:20:47;20.38;;;19.85;;
68942;SDS011;60852;52.190;4.422;2023-01-20T06:23:12;20.16;;;19.43;;
68942;SDS011;60852;52.190;4.422;2023-01-20T06:25:38;18.21;;;17.65;;
68942;SDS011;60852;52.190;4.422;2023-01-20T06:28:04;17.64;;;17.12;;
68942;SDS011;60852;52.190;4.422;2023-01-20T06:30:29;17.29;;;16.90;;
68942;SDS011;60852;52.190;4.422;2023-01-20T06:32:55;19.61;;;19.05;;
68942;SDS011;60852;52.190;4.422;2023-01-20T06:35:22;18.94;;;18.42;;
68942;SDS011;60852;52.190;4.422;2023-01-20T06:37:48;19.99;;;19.44;;
68942;SDS011;60852;52.190;4.422;2023-01-20T06:40:13;21.47;;;21.07;;
68942;SDS011;60852;52.190;4.422;2023-01-20T06:42:39;21.88;;;21.37;;
68942;SDS011;60852;52.190;4.422;2023-01-20T06:45:05;23.36;;;22.41;;
68942;SDS011;60852;52.190;4.422;2023-01-20T06:47:31;23.22;;;22.44;;
68942;SDS011;60852;52.190;4.422;2023-01-20T06:49:56;23.08;;;22.44;;
68942;SDS011;60852;52.190;4.422;2023-01-20T06:52:22;22.58;;;21.98;;
68942;SDS011;60852;52.190;4.422;2023-01-20T06:54:50;19.25;;;18.68;;
68942;SDS011;60852;52.190;4.422;2023-01-20T06:57:15;18.89;;;18.25;;
68942;SDS011;60852;52.190;4.422;2023-01-20T06:59:41;21.24;;;20.62;;
68942;SDS011;60852;52.190;4.422;2023-01-20T07:02:07;19.61;;;19.08;;
68942;SDS011;60852;52.190;4.422;2023-01-20T07:04:35;19.78;;;19.23;;
68942;SDS011;60852;52.190;4.422;2023-01-20T07:07:01;17.97;;;17.67;;
68942;SDS011;60852;52.190;4.422;2023-01-20T07:09:26;19.09;;;18.55;;
68942;SDS011;60852;52.190;4.422;2023-01-20T07:11:52;18.59;;;18.21;;
68942;SDS011;60852;52.190;4.422;2023-01-20T07:14:18;18.60;;;18.09;;
68942;SDS011;60852;52.190;4.422;2023-01-20T07:16:44;19.67;;;19.11;;
68942;SDS011;60852;52.190;4.422;2023-01-20T07:19:10;22.10;;;21.63;;
68942;SDS011;60852;52.190;4.422;2023-01-20T07:21:36;31.58;;;30.89;;
68942;SDS011;60852;52.190;4.422;2023-01-20T07:24:01;31.07;;;30.25;;
68942;SDS011;60852;52.190;4.422;2023-01-20T07:26:27;26.84;;;26.46;;
68942;SDS011;60852;52.190;4.422;2023-01-20T07:28:53;19.87;;;19.54;;
68942;SDS011;60852;52.190;4.422;2023-01-20T07:31:22;19.23;;;18.91;;
68942;SDS011;60852;52.190;4.422;2023-01-20T07:33:50;20.28;;;19.81;;
68942;SDS011;60852;52.190;4.422;2023-01-20T07:36:16;18.71;;;18.17;;
68942;SDS011;60852;52.190;4.422;2023-01-20T07:38:42;18.11;;;17.95;;
68942;SDS011;60852;52.190;4.422;2023-01-20T07:41:10;16.40;;;16.15;;
68942;SDS011;60852;52.190;4.422;2023-01-20T07:43:39;17.25;;;16.69;;
68942;SDS011;60852;52.190;4.422;2023-01-20T07:46:08;16.66;;;16.28;;
68942;SDS011;60852;52.190;4.422;2023-01-20T07:48:34;17.21;;;16.94;;
68942;SDS011;60852;52.190;4.422;2023-01-20T07:51:00;17.13;;;16.80;;
68942;SDS011;60852;52.190;4.422;2023-01-20T07:53:36;17.83;;;17.61;;
68942;SDS011;60852;52.190;4.422;2023-01-20T07:56:03;18.37;;;18.03;;
68942;SDS011;60852;52.190;4.422;2023-01-20T07:58:31;17.58;;;17.22;;
68942;SDS011;60852;52.190;4.422;2023-01-20T08:00:57;25.00;;;21.86;;
68942;SDS011;60852;52.190;4.422;2023-01-20T08:03:29;35.64;;;29.01;;
68942;SDS011;60852;52.190;4.422;2023-01-20T08:05:54;26.80;;;23.50;;
68942;SDS011;60852;52.190;4.422;2023-01-20T08:08:21;39.55;;;31.00;;
68942;SDS011;60852;52.190;4.422;2023-01-20T08:10:51;35.12;;;28.96;;
68942;SDS011;60852;52.190;4.422;2023-01-20T08:13:18;35.06;;;28.82;;
68942;SDS011;60852;52.190;4.422;2023-01-20T08:15:43;45.96;;;34.84;;
68942;SDS011;60852;52.190;4.422;2023-01-20T08:18:08;74.25;;;53.11;;
68942;SDS011;60852;52.190;4.422;2023-01-20T08:20:38;57.93;;;42.03;;
68942;SDS011;60852;52.190;4.422;2023-01-20T08:23:04;34.07;;;26.90;;
68942;SDS011;60852;52.190;4.422;2023-01-20T08:25:30;33.73;;;28.04;;
68942;SDS011;60852;52.190;4.422;2023-01-20T08:27:55;60.76;;;41.66;;
68942;SDS011;60852;52.190;4.422;2023-01-20T08:30:21;18.09;;;16.80;;
68942;SDS011;60852;52.190;4.422;2023-01-20T08:32:46;27.54;;;23.13;;
68942;SDS011;60852;52.190;4.422;2023-01-20T08:35:12;29.88;;;21.93;;
68942;SDS011;60852;52.190;4.422;2023-01-20T08:37:37;15.31;;;14.39;;
68942;SDS011;60852;52.190;4.422;2023-01-20T08:40:06;12.28;;;12.13;;
68942;SDS011;60852;52.190;4.422;2023-01-20T08:42:34;12.04;;;12.02;;
68942;SDS011;60852;52.190;4.422;2023-01-20T08:45:00;12.38;;;12.27;;
68942;SDS011;60852;52.190;4.422;2023-01-20T08:47:27;11.76;;;11.67;;
68942;SDS011;60852;52.190;4.422;2023-01-20T08:49:52;12.83;;;12.59;;
68942;SDS011;60852;52.190;4.422;2023-01-20T08:52:18;15.02;;;14.58;;
68942;SDS011;60852;52.190;4.422;2023-01-20T08:54:44;15.03;;;14.66;;
68942;SDS011;60852;52.190;4.422;2023-01-20T08:57:10;13.04;;;12.96;;
68942;SDS011;60852;52.190;4.422;2023-01-20T08:59:35;14.03;;;13.95;;
68942;SDS011;60852;52.190;4.422;2023-01-20T09:02:00;16.56;;;16.07;;
68942;SDS011;60852;52.190;4.422;2023-01-20T09:04:26;17.88;;;16.65;;
68942;SDS011;60852;52.190;4.422;2023-01-20T09:06:51;15.67;;;15.10;;
68942;SDS011;60852;52.190;4.422;2023-01-20T09:09:19;26.66;;;23.17;;
68942;SDS011;60852;52.190;4.422;2023-01-20T09:11:46;20.63;;;19.13;;
68942;SDS011;60852;52.190;4.422;2023-01-20T09:14:23;14.41;;;14.35;;
68942;SDS011;60852;52.190;4.422;2023-01-20T09:16:49;15.36;;;15.21;;
68942;SDS011;60852;52.190;4.422;2023-01-20T09:19:15;15.71;;;15.53;;
68942;SDS011;60852;52.190;4.422;2023-01-20T09:21:42;19.03;;;18.31;;
68942;SDS011;60852;52.190;4.422;2023-01-20T09:24:08;22.38;;;20.11;;
68942;SDS011;60852;52.190;4.422;2023-01-20T09:26:34;15.57;;;15.49;;
68942;SDS011;60852;52.190;4.422;2023-01-20T09:29:03;15.34;;;15.23;;
68942;SDS011;60852;52.190;4.422;2023-01-20T09:31:34;16.30;;;16.26;;
68942;SDS011;60852;52.190;4.422;2023-01-20T09:34:00;18.03;;;17.57;;
68942;SDS011;60852;52.190;4.422;2023-01-20T09:36:26;17.15;;;17.10;;
68942;SDS011;60852;52.190;4.422;2023-01-20T09:38:54;23.98;;;23.05;;
68942;SDS011;60852;52.190;4.422;2023-01-20T09:41:38;18.54;;;18.32;;
68942;SDS011;60852;52.190;4.422;2023-01-20T09:53:18;18.27;;;18.09;;
68942;SDS011;60852;52.190;4.422;2023-01-20T09:56:00;20.49;;;20.34;;
68942;SDS011;60852;52.190;4.422;2023-01-20T09:58:37;21.13;;;20.92;;
68942;SDS011;60852;52.190;4.422;2023-01-20T10:09:48;21.11;;;20.75;;
68942;SDS011;60852;52.190;4.422;2023-01-20T10:12:29;20.84;;;20.59;;
68942;SDS011;60852;52.190;4.422;2023-01-20T10:15:17;20.54;;;20.47;;
68942;SDS011;60852;52.190;4.422;2023-01-20T10:18:06;20.52;;;20.43;;
68942;SDS011;60852;52.190;4.422;2023-01-20T10:20:41;21.05;;;20.79;;
68942;SDS011;60852;52.190;4.422;2023-01-20T10:28:50;20.50;;;20.34;;
68942;SDS011;60852;52.190;4.422;2023-01-20T10:31:24;16.70;;;16.51;;
68942;SDS011;60852;52.190;4.422;2023-01-20T10:33:53;15.47;;;15.25;;
68942;SDS011;60852;52.190;4.422;2023-01-20T10:36:26;12.39;;;12.29;;
68942;SDS011;60852;52.190;4.422;2023-01-20T10:41:48;19.21;;;19.16;;
68942;SDS011;60852;52.190;4.422;2023-01-20T10:44:18;19.32;;;19.30;;
68942;SDS011;60852;52.190;4.422;2023-01-20T10:46:48;20.01;;;19.77;;
68942;SDS011;60852;52.190;4.422;2023-01-20T10:57:56;13.83;;;13.69;;
68942;SDS011;60852;52.190;4.422;2023-01-20T11:00:31;3.72;;;3.69;;
68942;SDS011;60852;52.190;4.422;2023-01-20T11:02:59;2.29;;;2.14;;
68942;SDS011;60852;52.190;4.422;2023-01-20T11:05:30;3.00;;;2.57;;
68942;SDS011;60852;52.190;4.422;2023-01-20T11:08:02;3.69;;;2.84;;
68942;SDS011;60852;52.190;4.422;2023-01-20T11:11:10;4.18;;;2.97;;
68942;SDS011;60852;52.190;4.422;2023-01-20T11:13:40;5.20;;;3.59;;
68942;SDS011;60852;52.190;4.422;2023-01-20T11:16:10;5.10;;;3.54;;
68942;SDS011;60852;52.190;4.422;2023-01-20T11:18:41;6.75;;;4.80;;
68942;SDS011;60852;52.190;4.422;2023-01-20T11:21:08;6.71;;;5.43;;
68942;SDS011;60852;52.190;4.422;2023-01-20T11:23:41;4.27;;;3.48;;
68942;SDS011;60852;52.190;4.422;2023-01-20T11:26:46;5.01;;;3.73;;
68942;SDS011;60852;52.190;4.422;2023-01-20T11:31:34;3.30;;;2.38;;
68942;SDS011;60852;52.190;4.422;2023-01-20T11:34:02;2.21;;;1.60;;
68942;SDS011;60852;52.190;4.422;2023-01-20T11:39:31;3.25;;;2.35;;
68942;SDS011;60852;52.190;4.422;2023-01-20T11:52:35;2.53;;;1.94;;
68942;SDS011;60852;52.190;4.422;2023-01-20T11:55:14;2.75;;;2.14;;
68942;SDS011;60852;52.190;4.422;2023-01-20T12:02:43;1.75;;;1.52;;
68942;SDS011;60852;52.190;4.422;2023-01-20T12:05:24;1.98;;;1.62;;
68942;SDS011;60852;52.190;4.422;2023-01-20T12:08:15;2.21;;;1.73;;
68942;SDS011;60852;52.190;4.422;2023-01-20T12:10:47;2.77;;;2.14;;
68942;SDS011;60852;52.190;4.422;2023-01-20T12:13:18;3.00;;;2.34;;
68942;SDS011;60852;52.190;4.422;2023-01-20T12:15:50;2.58;;;1.98;;
68942;SDS011;60852;52.190;4.422;2023-01-20T12:18:33;7.55;;;6.45;;
68942;SDS011;60852;52.190;4.422;2023-01-20T12:21:11;5.55;;;5.55;;
68942;SDS011;60852;52.190;4.422;2023-01-20T12:23:50;2.27;;;2.24;;
68942;SDS011;60852;52.190;4.422;2023-01-20T12:26:23;14.30;;;13.52;;
68942;SDS011;60852;52.190;4.422;2023-01-20T12:31:18;5.52;;;5.48;;
68942;SDS011;60852;52.190;4.422;2023-01-20T12:33:48;4.18;;;4.12;;
68942;SDS011;60852;52.190;4.422;2023-01-20T12:47:21;11.92;;;11.56;;
68942;SDS011;60852;52.190;4.422;2023-01-20T13:04:10;5.65;;;5.61;;
68942;SDS011;60852;52.190;4.422;2023-01-20T13:12:22;7.80;;;7.80;;
68942;SDS011;60852;52.190;4.422;2023-01-20T13:15:36;7.07;;;7.05;;
68942;SDS011;60852;52.190;4.422;2023-01-20T13:20:38;9.13;;;8.76;;
68942;SDS011;60852;52.190;4.422;2023-01-20T13:23:10;7.56;;;7.47;;
68942;SDS011;60852;52.190;4.422;2023-01-20T13:25:39;8.66;;;8.62;;
68942;SDS011;60852;52.190;4.422;2023-01-20T13:28:12;10.44;;;10.39;;
68942;SDS011;60852;52.190;4.422;2023-01-20T13:30:41;13.40;;;13.21;;
68942;SDS011;60852;52.190;4.422;2023-01-20T13:33:16;13.56;;;13.38;;
68942;SDS011;60852;52.190;4.422;2023-01-20T13:35:53;10.31;;;10.10;;
68942;SDS011;60852;52.190;4.422;2023-01-20T13:38:20;8.87;;;8.73;;
68942;SDS011;60852;52.190;4.422;2023-01-20T13:40:49;9.73;;;9.56;;
68942;SDS011;60852;52.190;4.422;2023-01-20T13:48:32;9.77;;;9.51;;
68942;SDS011;60852;52.190;4.422;2023-01-20T13:53:44;11.77;;;11.71;;
68942;SDS011;60852;52.190;4.422;2023-01-20T13:56:28;12.92;;;12.80;;
68942;SDS011;60852;52.190;4.422;2023-01-20T13:58:57;15.03;;;14.73;;
68942;SDS011;60852;52.190;4.422;2023-01-20T14:01:23;15.42;;;14.98;;
68942;SDS011;60852;52.190;4.422;2023-01-20T14:04:05;20.77;;;20.58;;
68942;SDS011;60852;52.190;4.422;2023-01-20T14:06:47;23.33;;;23.21;;
68942;SDS011;60852;52.190;4.422;2023-01-20T14:09:22;18.75;;;18.75;;
68942;SDS011;60852;52.190;4.422;2023-01-20T14:11:49;14.34;;;14.32;;
68942;SDS011;60852;52.190;4.422;2023-01-20T14:14:18;14.38;;;14.01;;
68942;SDS011;60852;52.190;4.422;2023-01-20T14:16:45;15.48;;;15.29;;
68942;SDS011;60852;52.190;4.422;2023-01-20T14:19:27;13.06;;;12.90;;
68942;SDS011;60852;52.190;4.422;2023-01-20T14:21:57;13.77;;;13.65;;
68942;SDS011;60852;52.190;4.422;2023-01-20T14:24:34;18.56;;;18.27;;
68942;SDS011;60852;52.190;4.422;2023-01-20T14:29:41;13.18;;;12.81;;
68942;SDS011;60852;52.190;4.422;2023-01-20T14:32:13;14.26;;;13.90;;
68942;SDS011;60852;52.190;4.422;2023-01-20T14:34:51;21.35;;;21.12;;
68942;SDS011;60852;52.190;4.422;2023-01-20T14:37:20;14.48;;;14.26;;
68942;SDS011;60852;52.190;4.422;2023-01-20T14:39:51;11.27;;;10.97;;
68942;SDS011;60852;52.190;4.422;2023-01-20T14:42:21;11.41;;;11.28;;
68942;SDS011;60852;52.190;4.422;2023-01-20T14:44:49;13.65;;;13.62;;
68942;SDS011;60852;52.190;4.422;2023-01-20T14:47:15;14.12;;;14.08;;
68942;SDS011;60852;52.190;4.422;2023-01-20T14:49:43;22.08;;;21.89;;
68942;SDS011;60852;52.190;4.422;2023-01-20T14:52:32;20.02;;;19.63;;
68942;SDS011;60852;52.190;4.422;2023-01-20T14:54:57;18.68;;;18.49;;
68942;SDS011;60852;52.190;4.422;2023-01-20T14:57:32;14.77;;;14.48;;
68942;SDS011;60852;52.190;4.422;2023-01-20T15:02:53;17.15;;;17.04;;
68942;SDS011;60852;52.190;4.422;2023-01-20T15:05:40;27.73;;;27.37;;
68942;SDS011;60852;52.190;4.422;2023-01-20T15:08:42;37.40;;;36.55;;
68942;SDS011;60852;52.190;4.422;2023-01-20T15:11:11;27.07;;;26.42;;
68942;SDS011;60852;52.190;4.422;2023-01-20T15:16:27;26.12;;;25.40;;
68942;SDS011;60852;52.190;4.422;2023-01-20T15:21:48;32.93;;;32.34;;
68942;SDS011;60852;52.190;4.422;2023-01-20T15:24:16;20.53;;;19.98;;
68942;SDS011;60852;52.190;4.422;2023-01-20T15:26:44;30.94;;;29.66;;
68942;SDS011;60852;52.190;4.422;2023-01-20T15:31:43;24.79;;;23.99;;
68942;SDS011;60852;52.190;4.422;2023-01-20T15:34:09;19.34;;;18.86;;
68942;SDS011;60852;52.190;4.422;2023-01-20T15:36:36;32.52;;;31.71;;
68942;SDS011;60852;52.190;4.422;2023-01-20T15:39:05;30.27;;;29.53;;
68942;SDS011;60852;52.190;4.422;2023-01-20T15:41:33;36.70;;;35.44;;
68942;SDS011;60852;52.190;4.422;2023-01-20T15:43:58;37.60;;;37.02;;
68942;SDS011;60852;52.190;4.422;2023-01-20T15:46:24;26.31;;;25.86;;
68942;SDS011;60852;52.190;4.422;2023-01-20T15:48:49;28.04;;;27.31;;
68942;SDS011;60852;52.190;4.422;2023-01-20T15:51:15;34.23;;;33.66;;
68942;SDS011;60852;52.190;4.422;2023-01-20T15:53:43;31.38;;;30.51;;
68942;SDS011;60852;52.190;4.422;2023-01-20T15:58:40;60.96;;;59.04;;
68942;SDS011;60852;52.190;4.422;2023-01-20T16:01:05;57.15;;;55.55;;
68942;SDS011;60852;52.190;4.422;2023-01-20T16:03:31;38.11;;;36.93;;
68942;SDS011;60852;52.190;4.422;2023-01-20T16:05:59;36.32;;;35.37;;
68942;SDS011;60852;52.190;4.422;2023-01-20T16:08:28;32.93;;;31.55;;
68942;SDS011;60852;52.190;4.422;2023-01-20T16:11:00;57.61;;;56.29;;
68942;SDS011;60852;52.190;4.422;2023-01-20T16:13:26;46.99;;;45.96;;
68942;SDS011;60852;52.190;4.422;2023-01-20T16:15:51;30.54;;;29.76;;
68942;SDS011;60852;52.190;4.422;2023-01-20T16:18:17;29.82;;;28.67;;
68942;SDS011;60852;52.190;4.422;2023-01-20T16:20:44;33.80;;;32.42;;
68942;SDS011;60852;52.190;4.422;2023-01-20T16:23:11;42.78;;;41.60;;
68942;SDS011;60852;52.190;4.422;2023-01-20T16:25:38;31.67;;;30.62;;
68942;SDS011;60852;52.190;4.422;2023-01-20T16:28:13;36.56;;;35.20;;
68942;SDS011;60852;52.190;4.422;2023-01-20T16:30:42;37.67;;;36.11;;
68942;SDS011;60852;52.190;4.422;2023-01-20T16:33:19;38.84;;;37.12;;
68942;SDS011;60852;52.190;4.422;2023-01-20T16:35:47;38.15;;;36.16;;
68942;SDS011;60852;52.190;4.422;2023-01-20T16:38:15;44.79;;;42.14;;
68942;SDS011;60852;52.190;4.422;2023-01-20T16:40:44;47.22;;;44.96;;
68942;SDS011;60852;52.190;4.422;2023-01-20T16:43:21;38.87;;;37.10;;
68942;SDS011;60852;52.190;4.422;2023-01-20T16:45:49;42.12;;;40.05;;
68942;SDS011;60852;52.190;4.422;2023-01-20T16:48:22;49.05;;;46.09;;
68942;SDS011;60852;52.190;4.422;2023-01-20T16:50:49;35.02;;;32.92;;
68942;SDS011;60852;52.190;4.422;2023-01-20T16:53:16;36.90;;;34.44;;
68942;SDS011;60852;52.190;4.422;2023-01-20T16:55:43;37.87;;;35.73;;
68942;SDS011;60852;52.190;4.422;2023-01-20T16:58:10;35.61;;;33.42;;
68942;SDS011;60852;52.190;4.422;2023-01-20T17:00:37;35.03;;;33.62;;
68942;SDS011;60852;52.190;4.422;2023-01-20T17:03:03;33.11;;;31.52;;
68942;SDS011;60852;52.190;4.422;2023-01-20T17:05:29;42.75;;;40.36;;
68942;SDS011;60852;52.190;4.422;2023-01-20T17:07:54;50.48;;;48.33;;
68942;SDS011;60852;52.190;4.422;2023-01-20T17:10:23;80.68;;;74.19;;